Time;durP1;ratioP1;P1;durP2;ratioP2;P2;SDS_P1;SDS_P2;PMS_P1;PMS_P2;Temp;Humidity;BMP_temperature;BMP_pressure;BME280_temperature;BME280_humidity;BME280_pressure;Samples;Min_cycle;Max_cycle;Signal;HPM_P1;HPM_P2
2023/10/25 00:00:14;;;;;;;;;49.50;41.00;;;;;;;;6489208;46;9070;-66
2023/10/25 00:06:17;;;;;;;;;46.00;40.25;;;;;;;;6489737;39;8894;-63
2023/10/25 00:12:21;;;;;;;;;52.00;44.00;;;;;;;;6488917;39;8925;-64
2023/10/25 00:18:26;;;;;;;;;52.25;42.00;;;;;;;;6489471;39;8953;-65
2023/10/25 00:24:30;;;;;;;;;53.75;43.25;;;;;;;;6491060;31;8974;-64
2023/10/25 00:30:33;;;;;;;;;50.00;39.00;;;;;;;;6488910;46;8843;-66
2023/10/25 00:36:35;;;;;;;;;41.00;37.25;;;;;;;;6489191;39;8867;-63
2023/10/25 00:42:43;;;;;;;;;50.75;39.00;;;;;;;;6489069;46;8947;-64
2023/10/25 00:48:48;;;;;;;;;48.75;39.00;;;;;;;;6489737;39;8879;-64
2023/10/25 00:54:51;;;;;;;;;37.50;36.25;;;;;;;;6489522;39;8874;-65
2023/10/25 01:00:56;;;;;;;;;31.25;29.50;;;;;;;;6488962;39;8981;-65
2023/10/25 01:07:04;;;;;;;;;42.75;35.75;;;;;;;;6489455;39;8936;-64
2023/10/25 01:13:07;;;;;;;;;41.25;35.25;;;;;;;;6488160;39;8894;-64
2023/10/25 01:19:11;;;;;;;;;39.00;35.00;;;;;;;;6490061;31;8899;-64
2023/10/25 01:25:15;;;;;;;;;42.75;37.00;;;;;;;;6488832;31;8932;-64
2023/10/25 01:31:18;;;;;;;;;46.50;35.75;;;;;;;;6488421;39;8844;-64
2023/10/25 01:37:20;;;;;;;;;38.00;35.25;;;;;;;;6489378;39;8937;-64
2023/10/25 01:43:28;;;;;;;;;36.50;35.50;;;;;;;;6489699;31;8879;-63
2023/10/25 01:49:31;;;;;;;;;42.75;36.50;;;;;;;;6487698;39;8874;-63
2023/10/25 01:55:39;;;;;;;;;32.75;32.00;;;;;;;;6489347;39;8935;-64
2023/10/25 02:01:43;;;;;;;;;37.25;35.50;;;;;;;;6404527;36;5000732;-64
2023/10/25 02:07:46;;;;;;;;;44.75;37.50;;;;;;;;6489423;39;9525;-63
2023/10/25 02:13:49;;;;;;;;;37.25;35.50;;;;;;;;6487769;46;8855;-64
2023/10/25 02:19:53;;;;;;;;;41.00;36.00;;;;;;;;6486802;47;8897;-65
2023/10/25 02:25:58;;;;;;;;;43.50;37.00;;;;;;;;6487832;47;8872;-65
2023/10/25 02:32:07;;;;;;;;;39.75;35.25;;;;;;;;6488098;47;9206;-63
2023/10/25 02:38:15;;;;;;;;;42.50;37.50;;;;;;;;6488412;39;8936;-64
2023/10/25 02:44:18;;;;;;;;;47.25;40.25;;;;;;;;6488153;39;9005;-64
2023/10/25 02:50:20;;;;;;;;;44.50;39.00;;;;;;;;6488894;39;8883;-65
2023/10/25 02:56:24;;;;;;;;;42.75;37.75;;;;;;;;6488181;39;8866;-66
2023/10/25 03:02:28;;;;;;;;;39.25;35.75;;;;;;;;6489352;31;8999;-64
2023/10/25 03:08:31;;;;;;;;;47.75;40.00;;;;;;;;6491541;39;9203;-64
2023/10/25 03:14:35;;;;;;;;;48.50;40.75;;;;;;;;6488292;31;8852;-65
2023/10/25 03:20:37;;;;;;;;;52.00;40.00;;;;;;;;6490010;39;9529;-65
2023/10/25 03:26:42;;;;;;;;;45.75;39.25;;;;;;;;6490255;31;8954;-64
2023/10/25 03:32:46;;;;;;;;;39.25;36.50;;;;;;;;6490105;46;8866;-64
2023/10/25 03:38:49;;;;;;;;;42.00;37.75;;;;;;;;6488403;46;8919;-65
2023/10/25 03:44:52;;;;;;;;;45.50;38.75;;;;;;;;6489210;46;8870;-64
2023/10/25 03:50:55;;;;;;;;;47.50;40.75;;;;;;;;6489550;39;8938;-64
2023/10/25 03:56:58;;;;;;;;;40.75;37.00;;;;;;;;6488897;39;8898;-64
2023/10/25 04:03:02;;;;;;;;;43.50;38.00;;;;;;;;6489761;46;8864;-64
2023/10/25 04:09:05;;;;;;;;;45.00;39.75;;;;;;;;6490486;31;9096;-64
2023/10/25 04:15:09;;;;;;;;;48.00;40.25;;;;;;;;6489764;39;8903;-65
2023/10/25 04:21:13;;;;;;;;;45.50;39.00;;;;;;;;6490188;39;8893;-65
2023/10/25 04:27:15;;;;;;;;;48.75;40.25;;;;;;;;6489786;39;8958;-66
2023/10/25 04:33:25;;;;;;;;;47.75;39.75;;;;;;;;6487989;39;8930;-64
2023/10/25 04:39:34;;;;;;;;;49.50;42.00;;;;;;;;6489770;46;8947;-67
2023/10/25 04:45:39;;;;;;;;;47.25;40.00;;;;;;;;6489517;39;9009;-66
2023/10/25 04:51:41;;;;;;;;;48.50;40.50;;;;;;;;6489685;39;8903;-65
2023/10/25 04:57:44;;;;;;;;;47.25;41.50;;;;;;;;6489736;39;9009;-64
2023/10/25 05:03:55;;;;;;;;;48.50;42.25;;;;;;;;6471161;39;9978;-66
2023/10/25 05:10:03;;;;;;;;;48.00;40.25;;;;;;;;6491952;46;8952;-69
